Time;durP1;ratioP1;P1;durP2;ratioP2;P2;SDS_P1;SDS_P2;PMS_P1;PMS_P2;Temp;Humidity;BMP_temperature;BMP_pressure;BME280_temperature;BME280_humidity;BME280_pressure;Samples;Min_cycle;Max_cycle;Signal;HPM_P1;HPM_P2
2022/12/16 00:01:52;;;;;;;48.07;17.07;;;8.40;95.90;;;;;;6180491;23;20176;-80
2022/12/16 00:04:22;;;;;;;42.43;15.97;;;8.50;96.00;;;;;;6182152;23;20160;-80
2022/12/16 00:06:50;;;;;;;41.80;15.27;;;8.40;95.90;;;;;;6176818;23;20841;-79
2022/12/16 00:09:19;;;;;;;42.60;15.27;;;8.40;95.90;;;;;;6180116;23;20483;-78
2022/12/16 00:11:47;;;;;;;45.93;16.23;;;8.40;95.80;;;;;;6177737;23;20175;-78
2022/12/16 00:14:15;;;;;;;41.70;16.20;;;8.40;95.80;;;;;;6182672;23;20178;-79
2022/12/16 00:16:44;;;;;;;43.17;16.77;;;8.40;95.80;;;;;;6181597;23;20257;-78
2022/12/16 00:19:14;;;;;;;42.07;15.33;;;8.40;95.80;;;;;;6183879;23;20214;-79
2022/12/16 00:21:42;;;;;;;46.97;16.13;;;8.40;95.80;;;;;;6183204;23;20238;-79
2022/12/16 00:24:10;;;;;;;36.20;14.87;;;8.40;95.80;;;;;;6184657;23;20180;-79
2022/12/16 00:26:38;;;;;;;37.30;14.83;;;8.40;95.80;;;;;;6180982;23;20202;-80
2022/12/16 00:29:09;;;;;;;40.67;15.50;;;8.40;95.80;;;;;;6185775;23;20179;-80
2022/12/16 00:31:38;;;;;;;48.87;15.90;;;8.40;95.80;;;;;;6183543;23;20166;-80
2022/12/16 00:34:06;;;;;;;44.27;16.83;;;8.40;95.80;;;;;;6185033;23;20178;-80
2022/12/16 00:36:36;;;;;;;43.87;15.77;;;8.40;95.80;;;;;;6185045;23;20179;-79
2022/12/16 00:39:04;;;;;;;41.70;15.07;;;8.40;95.70;;;;;;6185924;23;20200;-80
2022/12/16 00:41:33;;;;;;;39.60;16.55;;;8.40;95.70;;;;;;6181221;23;20388;-79
2022/12/16 00:44:01;;;;;;;37.17;16.27;;;8.40;95.80;;;;;;6185851;23;20230;-79
2022/12/16 00:46:30;;;;;;;41.87;15.37;;;8.40;95.80;;;;;;6184056;23;20275;-83
2022/12/16 00:48:58;;;;;;;46.93;16.13;;;8.40;95.80;;;;;;6182357;23;20699;-81
2022/12/16 00:51:26;;;;;;;37.97;14.90;;;8.40;95.80;;;;;;6186042;23;20172;-80
2022/12/16 00:53:56;;;;;;;53.40;19.85;;;8.40;95.80;;;;;;6182469;23;20385;-80
2022/12/16 00:56:25;;;;;;;40.87;15.67;;;8.40;95.80;;;;;;6186026;23;20205;-80
2022/12/16 00:58:53;;;;;;;43.27;15.23;;;8.40;95.90;;;;;;6184367;23;20495;-80
2022/12/16 01:01:21;;;;;;;34.03;13.60;;;8.40;95.80;;;;;;6186480;23;20203;-80
2022/12/16 01:03:50;;;;;;;41.00;15.70;;;8.40;95.80;;;;;;6182126;23;20229;-80
2022/12/16 01:06:19;;;;;;;33.83;13.90;;;8.40;95.80;;;;;;6183205;23;20497;-79
2022/12/16 01:08:48;;;;;;;34.37;14.20;;;8.40;95.70;;;;;;6185591;23;20172;-80
2022/12/16 01:11:19;;;;;;;36.00;13.87;;;8.40;95.70;;;;;;6185865;23;20629;-81
2022/12/16 01:13:51;;;;;;;36.63;13.80;;;8.40;95.70;;;;;;6185299;23;20160;-80
2022/12/16 01:16:22;;;;;;;38.67;14.60;;;8.40;95.70;;;;;;6184266;23;20167;-81
2022/12/16 01:18:50;;;;;;;42.53;13.57;;;8.40;95.60;;;;;;6185521;23;20172;-81
2022/12/16 01:21:19;;;;;;;39.60;14.20;;;8.40;95.60;;;;;;6184124;23;20592;-81
2022/12/16 01:23:48;;;;;;;42.73;15.73;;;8.40;95.60;;;;;;6181794;23;20660;-80
2022/12/16 01:26:18;;;;;;;46.80;17.37;;;8.30;95.70;;;;;;6182853;23;20206;-80
2022/12/16 01:28:48;;;;;;;43.97;15.97;;;8.20;95.70;;;;;;6182793;23;20226;-81
2022/12/16 01:31:18;;;;;;;40.30;16.63;;;8.10;95.80;;;;;;6184102;23;20160;-80
2022/12/16 01:33:47;;;;;;;42.50;16.97;;;8.10;95.90;;;;;;6181672;23;20172;-79
2022/12/16 01:36:15;;;;;;;38.90;16.10;;;8.10;96.10;;;;;;6185764;23;20172;-79
2022/12/16 01:38:44;;;;;;;43.63;16.53;;;8.10;96.00;;;;;;6181708;23;20223;-81
2022/12/16 01:41:14;;;;;;;41.80;16.13;;;8.00;96.10;;;;;;6182163;23;20246;-80
2022/12/16 01:43:45;;;;;;;40.90;14.80;;;7.90;96.20;;;;;;6181223;23;20172;-80
2022/12/16 01:46:19;;;;;;;40.33;15.20;;;8.00;96.10;;;;;;6186010;23;20160;-80
2022/12/16 01:48:51;;;;;;;35.47;14.40;;;7.90;96.10;;;;;;6178493;23;20187;-80
2022/12/16 01:51:26;;;;;;;41.37;17.00;;;7.90;96.10;;;;;;6183217;23;20605;-80
2022/12/16 01:54:00;;;;;;;35.17;13.80;;;7.90;96.10;;;;;;6180252;23;20178;-80
2022/12/16 01:56:32;;;;;;;36.17;13.70;;;7.90;96.00;;;;;;6183547;23;20195;-80
2022/12/16 01:59:02;;;;;;;30.73;11.93;;;7.90;96.00;;;;;;6182930;23;20179;-80
2022/12/16 02:01:31;;;;;;;32.00;12.10;;;7.90;95.90;;;;;;6184979;23;20212;-79
2022/12/16 02:04:03;;;;;;;26.27;11.13;;;7.90;95.90;;;;;;6182909;23;20164;-80
2022/12/16 02:06:32;;;;;;;25.50;11.00;;;7.80;95.80;;;;;;6184273;23;20226;-79
2022/12/16 02:09:05;;;;;;;24.20;11.73;;;7.80;95.70;;;;;;6182713;23;20179;-79
2022/12/16 02:12:06;;;;;;;28.98;13.02;;;7.80;95.70;;;;;;6179716;23;20381;-79
2022/12/16 02:15:07;;;;;;;28.90;11.20;;;7.80;95.70;;;;;;6181434;23;20172;-80
2022/12/16 02:17:45;;;;;;;31.60;11.23;;;7.80;95.70;;;;;;6130235;23;20226;-80
2022/12/16 02:20:39;;;;;;;27.63;12.83;;;7.80;95.70;;;;;;6180866;23;20503;-80
2022/12/16 02:23:29;;;;;;;30.03;11.47;;;7.80;95.70;;;;;;6181808;23;20176;-80
2022/12/16 02:26:19;;;;;;;31.17;11.50;;;7.80;95.60;;;;;;6183525;23;20595;-80
2022/12/16 02:29:07;;;;;;;29.70;10.83;;;7.70;95.70;;;;;;6182896;23;20202;-80
2022/12/16 02:31:44;;;;;;;33.97;12.93;;;7.70;95.80;;;;;;6181697;23;20172;-80
2022/12/16 02:34:21;;;;;;;33.73;12.17;;;7.70;95.80;;;;;;6180751;23;20159;-81
2022/12/16 02:37:00;;;;;;;33.77;12.33;;;7.60;95.90;;;;;;6181609;23;20693;-78
2022/12/16 02:39:37;;;;;;;28.23;12.53;;;7.60;96.00;;;;;;6184035;23;20163;-81
2022/12/16 02:42:12;;;;;;;32.10;11.97;;;7.60;96.10;;;;;;6181218;23;20339;-79
2022/12/16 02:44:49;;;;;;;29.60;12.43;;;7.50;96.20;;;;;;6183486;23;20160;-79
2022/12/16 02:47:19;;;;;;;26.37;11.90;;;7.40;96.40;;;;;;6179337;23;20160;-80
2022/12/16 02:49:49;;;;;;;33.67;13.37;;;7.40;96.30;;;;;;6181443;23;20234;-79
2022/12/16 02:52:20;;;;;;;35.70;13.70;;;7.40;96.50;;;;;;6182756;23;20167;-80
2022/12/16 02:54:51;;;;;;;30.80;12.70;;;7.40;96.60;;;;;;6182366;23;20569;-79
2022/12/16 02:57:50;;;;;;;34.07;12.43;;;7.40;96.70;;;;;;6183891;23;20168;-80
2022/12/16 03:00:22;;;;;;;28.67;11.00;;;7.30;96.80;;;;;;6172130;23;20203;-81
2022/12/16 03:02:59;;;;;;;26.30;11.83;;;7.30;96.80;;;;;;6183163;23;20381;-79
2022/12/16 03:05:31;;;;;;;25.97;11.57;;;7.20;96.80;;;;;;6183427;23;20164;-78
2022/12/16 03:08:03;;;;;;;22.80;10.47;;;7.20;96.90;;;;;;6184896;23;20608;-79
2022/12/16 03:10:37;;;;;;;18.93;8.57;;;7.20;96.90;;;;;;6182640;23;20222;-79
2022/12/16 03:13:07;;;;;;;19.30;8.30;;;7.10;96.80;;;;;;6182952;23;20167;-80
2022/12/16 03:15:36;;;;;;;20.77;8.87;;;7.10;96.80;;;;;;6181324;23;20503;-79
2022/12/16 03:18:09;;;;;;;19.27;7.93;;;7.00;96.90;;;;;;6182622;23;20175;-79
2022/12/16 03:20:42;;;;;;;23.80;9.63;;;7.00;97.00;;;;;;6181301;23;20680;-79
2022/12/16 03:23:14;;;;;;;20.07;8.67;;;7.00;97.00;;;;;;6180343;23;20600;-78
2022/12/16 03:25:45;;;;;;;22.40;10.33;;;7.00;97.10;;;;;;6184283;23;20252;-78
2022/12/16 03:28:26;;;;;;;21.67;9.57;;;6.90;97.20;;;;;;6179430;23;20912;-78
2022/12/16 03:31:04;;;;;;;22.90;9.03;;;6.90;97.20;;;;;;6183487;23;20174;-78
2022/12/16 03:33:39;;;;;;;24.73;8.77;;;6.90;97.40;;;;;;6179165;23;20164;-78
2022/12/16 03:36:13;;;;;;;22.47;9.70;;;6.90;97.40;;;;;;6182670;23;20159;-77
2022/12/16 03:38:43;;;;;;;21.63;9.70;;;6.90;97.40;;;;;;6182509;23;20189;-78
2022/12/16 03:41:12;;;;;;;23.45;10.88;;;6.90;97.40;;;;;;6181295;23;20409;-80
2022/12/16 03:43:41;;;;;;;20.40;8.87;;;6.90;97.50;;;;;;6180423;23;20271;-78
2022/12/16 03:46:10;;;;;;;20.37;9.67;;;6.80;97.70;;;;;;6184162;23;20230;-78
2022/12/16 03:48:48;;;;;;;23.58;9.63;;;6.80;97.70;;;;;;6182756;23;20114;-79
2022/12/16 03:51:16;;;;;;;20.20;8.73;;;6.80;97.70;;;;;;6182222;23;20534;-80
2022/12/16 03:53:45;;;;;;;19.97;8.60;;;6.80;97.80;;;;;;6180896;23;20171;-79
2022/12/16 03:56:13;;;;;;;19.17;9.37;;;6.70;97.90;;;;;;6181077;23;20234;-80
2022/12/16 03:58:42;;;;;;;18.93;8.40;;;6.70;97.90;;;;;;6181189;23;20237;-77
2022/12/16 04:01:10;;;;;;;21.47;8.80;;;6.70;97.90;;;;;;6183645;23;20265;-78
2022/12/16 04:03:39;;;;;;;21.00;8.87;;;6.70;97.90;;;;;;6182468;23;20493;-77
2022/12/16 04:06:09;;;;;;;25.90;9.63;;;6.70;98.10;;;;;;6179670;23;20236;-79
2022/12/16 04:08:37;;;;;;;21.70;8.20;;;6.70;98.10;;;;;;6180818;23;20261;-78
2022/12/16 04:25:09;;;;;;;21.87;8.97;;;6.80;98.10;;;;;;6181540;23;20239;-78
2022/12/16 04:27:37;;;;;;;22.83;8.57;;;6.80;98.30;;;;;;6179416;23;20167;-78
2022/12/16 04:30:19;;;;;;;20.90;8.57;;;6.80;98.30;;;;;;6179133;23;20687;-78
